Terminal Aerodrome Forecast
Issued by NWS

Home | Current Version | Previous Version | Text Only | Print | Product List | Glossary On
Versions: 1 2 3 4 5 6 7 8 9 10 11 12 13 14
000
FTUS46 KSTO 010500
TAFMHR
TAF
KMHR 010539Z 0106/0206 VRB04KT P6SM SKC
     FM011200 00000KT 4SM BR BKN250
      TEMPO 0114/0118 1SM BR SCT001
     FM012000 VRB03KT 5SM HZ BKN200
      AMD NOT SKED=

USA.gov is the U.S. government's official web portal to all federal, state and local government web resources and services.